createdAt,value
2022-10-11T00:01:46.152Z,8.18
2022-10-11T00:04:13.960Z,10.18
2022-10-11T00:06:43.399Z,10.77
2022-10-11T00:09:12.471Z,10.90
2022-10-11T00:11:41.580Z,9.68
2022-10-11T00:14:09.566Z,14.43
2022-10-11T00:16:38.654Z,13.02
2022-10-11T00:19:06.398Z,10.13
2022-10-11T00:21:34.120Z,11.93
2022-10-11T00:24:01.992Z,13.70
2022-10-11T00:26:29.970Z,9.50
2022-10-11T00:28:59.317Z,13.00
2022-10-11T00:31:28.388Z,9.88
2022-10-11T00:33:58.602Z,12.13
2022-10-11T00:36:26.652Z,13.25
2022-10-11T00:38:54.445Z,11.55
2022-10-11T00:41:22.903Z,16.85
2022-10-11T00:44:14.410Z,10.27
2022-10-11T00:46:45.517Z,13.48
2022-10-11T00:49:19.027Z,9.80
2022-10-11T00:51:54.365Z,13.85
2022-10-11T00:54:25.279Z,10.45
2022-10-11T00:56:57.395Z,8.90
2022-10-11T00:59:30.519Z,7.13
2022-10-11T01:01:58.607Z,10.57
2022-10-11T01:04:26.322Z,13.55
2022-10-11T01:06:55.600Z,6.88
2022-10-11T01:09:23.545Z,7.88
2022-10-11T01:11:54.709Z,13.68
2022-10-11T01:14:54.845Z,10.48
2022-10-11T01:17:34.579Z,12.95
2022-10-11T01:20:39.048Z,10.07
2022-10-11T01:23:57.516Z,10.60
2022-10-11T01:27:02.517Z,11.05
2022-10-11T01:29:42.659Z,12.65
2022-10-11T01:32:16.887Z,15.85
2022-10-11T01:34:52.639Z,11.70
2022-10-11T01:39:59.965Z,9.07
2022-10-11T01:42:29.769Z,12.77
2022-10-11T01:44:59.645Z,10.10
2022-10-11T01:47:28.753Z,10.02
2022-10-11T01:49:57.899Z,12.10
2022-10-11T01:52:27.877Z,8.50
2022-10-11T01:55:12.844Z,9.25
2022-10-11T01:58:07.252Z,10.52
2022-10-11T02:00:44.270Z,9.02
2022-10-11T02:03:25.872Z,8.32
2022-10-11T02:05:58.462Z,13.43
2022-10-11T02:08:34.461Z,15.60
2022-10-11T02:11:08.118Z,9.70
2022-10-11T02:13:41.223Z,10.77
2022-10-11T02:16:19.811Z,14.68
2022-10-11T02:18:53.925Z,13.73
2022-10-11T02:21:23.934Z,11.52
2022-10-11T02:23:55.178Z,10.65
2022-10-11T02:26:26.064Z,12.38
2022-10-11T02:28:58.355Z,15.98
2022-10-11T02:31:27.141Z,11.98
2022-10-11T02:34:02.714Z,11.05
2022-10-11T02:36:41.641Z,13.70
2022-10-11T02:39:17.232Z,10.27
2022-10-11T02:41:47.112Z,12.48
2022-10-11T02:44:20.886Z,12.82
2022-10-11T02:46:50.828Z,10.38
2022-10-11T02:49:21.086Z,13.02
2022-10-11T02:51:49.206Z,13.30
2022-10-11T02:54:16.932Z,12.30
2022-10-11T02:56:44.617Z,11.77
2022-10-11T02:59:12.561Z,7.38
2022-10-11T03:01:40.369Z,13.52
2022-10-11T03:04:08.144Z,9.77
2022-10-11T03:06:37.291Z,10.30
2022-10-11T03:09:05.054Z,9.75
2022-10-11T03:11:32.792Z,9.70
2022-10-11T03:14:00.542Z,16.13
2022-10-11T03:16:28.207Z,13.73
2022-10-11T03:18:56.229Z,9.45
2022-10-11T03:21:25.466Z,9.52
2022-10-11T03:23:54.573Z,10.35
2022-10-11T03:26:22.305Z,6.60
2022-10-11T03:28:50.275Z,11.38
2022-10-11T03:31:18.542Z,7.95
2022-10-11T03:33:46.370Z,7.45
2022-10-11T03:36:14.278Z,10.32
2022-10-11T03:38:42.247Z,21.45
2022-10-11T03:41:11.331Z,8.60
2022-10-11T03:43:39.028Z,9.30
2022-10-11T03:46:07.602Z,9.02
2022-10-11T03:48:35.886Z,10.98
2022-10-11T03:51:03.591Z,10.55
2022-10-11T03:53:31.341Z,9.43
2022-10-11T03:55:59.131Z,7.05
2022-10-11T03:58:28.242Z,12.65
2022-10-11T04:00:55.929Z,13.32
2022-10-11T04:03:23.759Z,11.35
2022-10-11T04:05:51.469Z,9.70
2022-10-11T04:08:19.532Z,12.20
2022-10-11T04:10:48.961Z,7.38
2022-10-11T04:13:17.080Z,15.10
2022-10-11T04:15:46.357Z,12.35
2022-10-11T04:18:14.107Z,12.02
2022-10-11T04:20:42.695Z,12.20
2022-10-11T04:23:10.396Z,11.73
2022-10-11T04:25:39.423Z,12.52
2022-10-11T04:28:07.984Z,13.48
2022-10-11T04:30:35.861Z,12.48
2022-10-11T04:33:05.156Z,10.52
2022-10-11T04:35:32.898Z,11.52
2022-10-11T04:38:00.613Z,11.18
2022-10-11T04:40:28.412Z,11.98
2022-10-11T04:42:56.103Z,12.85
2022-10-11T04:45:23.899Z,14.45
2022-10-11T04:47:51.585Z,11.60
2022-10-11T04:50:20.772Z,15.60
2022-10-11T04:52:48.592Z,12.27
2022-10-11T04:55:16.489Z,10.10
2022-10-11T04:57:44.227Z,9.23
2022-10-11T05:00:13.434Z,11.23
2022-10-11T05:02:41.193Z,13.07
2022-10-11T05:05:09.947Z,12.52
2022-10-11T05:07:39.021Z,10.48
2022-10-11T05:10:08.463Z,14.25
2022-10-11T05:12:36.219Z,11.23
2022-10-11T05:15:04.126Z,10.75
2022-10-11T05:17:32.158Z,11.65
2022-10-11T05:20:00.059Z,13.05
2022-10-11T05:22:27.765Z,10.80
2022-10-11T05:24:56.841Z,14.25
2022-10-11T05:27:24.625Z,14.00
2022-10-11T05:29:52.312Z,12.90
2022-10-11T05:32:20.022Z,12.18
2022-10-11T05:34:47.799Z,12.98
2022-10-11T05:37:15.474Z,14.00
2022-10-11T05:39:43.237Z,17.83
2022-10-11T05:42:12.238Z,16.85
2022-10-11T05:44:40.013Z,13.40
2022-10-11T05:47:07.669Z,20.50
2022-10-11T05:49:35.351Z,17.40
2022-10-11T05:52:03.025Z,22.15
2022-10-11T05:54:32.270Z,18.75
2022-10-11T05:57:00.025Z,33.50
2022-10-11T05:59:29.034Z,17.10
2022-10-11T06:01:56.700Z,26.42
2022-10-11T06:04:24.371Z,20.77
2022-10-11T06:06:52.004Z,25.00
2022-10-11T06:09:19.754Z,29.90
2022-10-11T06:11:47.737Z,26.60
2022-10-11T06:14:15.513Z,23.92
2022-10-11T06:16:44.989Z,36.13
2022-10-11T06:19:12.729Z,27.85
2022-10-11T06:21:40.427Z,34.33
2022-10-11T06:24:09.285Z,30.88
2022-10-11T06:26:37.150Z,35.30
2022-10-11T06:29:05.539Z,33.60
2022-10-11T06:31:33.746Z,35.42
2022-10-11T06:34:02.921Z,36.45
2022-10-11T06:36:30.924Z,37.08
2022-10-11T06:39:00.893Z,37.45
2022-10-11T06:41:30.375Z,38.65
2022-10-11T06:43:58.222Z,32.97
2022-10-11T06:46:28.846Z,32.67
2022-10-11T06:48:57.295Z,39.55
2022-10-11T06:51:28.538Z,46.67
2022-10-11T06:53:58.562Z,42.85
2022-10-11T06:56:27.192Z,52.63
2022-10-11T06:58:55.525Z,40.05
2022-10-11T07:01:24.532Z,42.05
2022-10-11T07:03:53.644Z,42.88
2022-10-11T07:06:23.288Z,40.83
2022-10-11T07:08:53.041Z,40.40
2022-10-11T07:11:22.951Z,41.20
2022-10-11T07:13:51.948Z,38.35
2022-10-11T07:16:20.646Z,38.85
2022-10-11T07:18:49.467Z,37.25
2022-10-11T07:21:17.544Z,34.45
2022-10-11T07:23:45.489Z,36.97
2022-10-11T07:26:14.693Z,53.50
2022-10-11T07:28:42.895Z,42.35
2022-10-11T07:31:13.288Z,34.83
2022-10-11T07:33:41.127Z,38.47
2022-10-11T07:36:09.774Z,50.05
2022-10-11T07:38:40.991Z,43.65
2022-10-11T07:41:09.598Z,43.75
2022-10-11T07:43:39.183Z,44.55
2022-10-11T07:46:08.115Z,48.40
2022-10-11T07:48:37.417Z,44.15
2022-10-11T07:51:06.625Z,44.45
2022-10-11T07:53:39.717Z,45.15
2022-10-11T07:56:08.769Z,35.75
2022-10-11T07:58:38.500Z,44.10
2022-10-11T08:01:07.131Z,41.63
2022-10-11T08:03:34.912Z,38.30
2022-10-11T08:06:03.917Z,44.45
2022-10-11T08:08:32.276Z,38.85
2022-10-11T08:11:00.686Z,41.40
2022-10-11T08:13:28.623Z,36.63
2022-10-11T08:15:57.931Z,36.30
2022-10-11T08:18:25.953Z,39.80
2022-10-11T08:20:54.038Z,35.65
2022-10-11T08:23:21.808Z,35.38
2022-10-11T08:25:49.723Z,38.25
2022-10-11T08:28:18.003Z,34.97
2022-10-11T08:30:50.515Z,30.63
2022-10-11T08:33:20.913Z,31.42
2022-10-11T08:35:49.152Z,37.78
2022-10-11T08:38:17.942Z,35.45
2022-10-11T08:40:50.527Z,33.22
2022-10-11T08:43:33.163Z,32.67
2022-10-11T08:46:03.676Z,27.23
2022-10-11T08:48:37.596Z,36.85
2022-10-11T08:51:15.007Z,33.00
2022-10-11T08:53:50.276Z,33.55
2022-10-11T08:56:18.707Z,31.02
2022-10-11T08:58:51.606Z,34.50
2022-10-11T09:01:22.938Z,32.15
2022-10-11T09:03:53.177Z,29.58
2022-10-11T09:06:37.604Z,32.08
2022-10-11T09:09:22.877Z,31.20
2022-10-11T09:12:03.755Z,30.20
2022-10-11T09:15:06.711Z,32.58
2022-10-11T09:17:56.538Z,30.67
2022-10-11T09:20:53.021Z,33.72
2022-10-11T09:23:39.270Z,36.50
2022-10-11T09:26:13.881Z,32.47
2022-10-11T09:28:58.680Z,33.75
2022-10-11T09:31:29.273Z,36.35
2022-10-11T09:33:59.963Z,35.47
2022-10-11T09:36:37.112Z,35.75
2022-10-11T09:39:14.691Z,39.83
2022-10-11T09:41:48.956Z,33.15
2022-10-11T09:44:23.536Z,37.25
2022-10-11T09:46:53.742Z,30.73
2022-10-11T09:49:25.132Z,34.53
2022-10-11T09:51:57.372Z,41.50
2022-10-11T09:54:39.105Z,43.00
2022-10-11T09:57:07.181Z,36.17
2022-10-11T09:59:35.974Z,34.17
2022-10-11T10:02:18.836Z,32.05
2022-10-11T10:04:58.432Z,31.75
2022-10-11T10:07:28.458Z,27.67
2022-10-11T10:09:56.342Z,29.88
2022-10-11T10:12:28.175Z,26.70
2022-10-11T10:15:02.556Z,31.33
2022-10-11T10:17:30.472Z,28.88
2022-10-11T10:20:00.385Z,25.33
2022-10-11T10:22:33.273Z,31.05
2022-10-11T10:25:07.140Z,27.38
2022-10-11T10:27:35.302Z,23.80
2022-10-11T10:30:15.872Z,22.38
2022-10-11T10:32:50.827Z,23.23
2022-10-11T10:35:29.536Z,25.80
2022-10-11T10:38:08.216Z,22.58
2022-10-11T10:40:42.627Z,19.88
2022-10-11T10:43:18.776Z,20.50
2022-10-11T10:46:18.380Z,19.85
2022-10-11T10:51:50.593Z,16.98
2022-10-11T10:54:30.762Z,18.63
2022-10-11T10:57:03.267Z,20.27
2022-10-11T10:59:47.811Z,20.25
2022-10-11T11:02:39.828Z,18.52
2022-10-11T11:05:18.705Z,19.15
2022-10-11T11:07:51.046Z,17.73
2022-10-11T11:10:23.908Z,17.33
2022-10-11T11:12:58.296Z,17.20
2022-10-11T11:15:36.968Z,18.77
2022-10-11T11:18:20.185Z,16.13
2022-10-11T11:21:01.516Z,19.23
2022-10-11T11:23:38.341Z,16.00
2022-10-11T11:26:17.754Z,16.52
2022-10-11T11:28:57.276Z,15.27
2022-10-11T11:31:44.112Z,16.23
2022-10-11T11:34:20.538Z,16.52
2022-10-11T11:36:52.928Z,14.27
2022-10-11T11:39:24.228Z,14.50
2022-10-11T11:41:57.556Z,11.30
2022-10-11T11:44:31.066Z,16.13
2022-10-11T11:47:04.209Z,18.77
2022-10-11T11:49:36.132Z,17.17
2022-10-11T11:52:05.503Z,16.50
2022-10-11T11:54:43.363Z,14.90
2022-10-11T11:57:24.686Z,14.27
2022-10-11T11:59:58.144Z,10.88
2022-10-11T12:02:40.066Z,11.45
2022-10-11T12:05:09.413Z,9.75
2022-10-11T12:07:53.884Z,11.70
2022-10-11T12:10:32.319Z,14.32
2022-10-11T12:13:22.934Z,10.23
2022-10-11T12:16:10.303Z,9.00
2022-10-11T12:18:51.053Z,9.60
2022-10-11T12:21:23.259Z,7.07
2022-10-11T12:23:52.363Z,9.15
2022-10-11T12:26:36.677Z,9.88
2022-10-11T12:29:55.564Z,10.40
2022-10-11T12:32:53.327Z,8.82
2022-10-11T12:35:42.399Z,9.85
2022-10-11T12:38:20.301Z,6.88
2022-10-11T12:40:49.671Z,9.52
2022-10-11T12:43:59.758Z,8.88
2022-10-11T12:46:58.892Z,9.55
2022-10-11T12:49:44.781Z,8.38
2022-10-11T12:52:29.798Z,8.00
2022-10-11T12:58:26.850Z,8.57
2022-10-11T13:01:16.611Z,7.82
2022-10-11T13:03:47.645Z,7.78
2022-10-11T13:06:19.366Z,8.63
2022-10-11T13:08:53.292Z,6.93
2022-10-11T13:11:23.687Z,11.00
2022-10-11T13:13:55.181Z,8.40
2022-10-11T13:16:26.469Z,10.02
2022-10-11T13:18:57.472Z,6.88
2022-10-11T13:21:31.071Z,7.78
2022-10-11T13:24:01.399Z,7.90
2022-10-11T13:26:31.588Z,6.65
2022-10-11T13:29:01.177Z,7.82
2022-10-11T13:31:29.131Z,6.63
2022-10-11T13:33:59.077Z,10.80
2022-10-11T13:36:28.491Z,10.05
2022-10-11T13:38:58.672Z,9.02
2022-10-11T13:41:28.121Z,5.95
2022-10-11T13:43:58.054Z,9.10
2022-10-11T13:46:27.569Z,6.43
2022-10-11T13:49:02.489Z,6.63
2022-10-11T13:51:36.732Z,7.30
2022-10-11T13:54:08.466Z,9.33
2022-10-11T13:56:45.105Z,8.70
2022-10-11T13:59:18.245Z,10.43
2022-10-11T14:01:46.742Z,9.80
2022-10-11T14:04:17.371Z,9.52
2022-10-11T14:06:49.028Z,7.10
2022-10-11T14:09:21.464Z,8.35
2022-10-11T14:11:50.162Z,7.03
2022-10-11T14:14:43.660Z,8.07
2022-10-11T14:17:17.124Z,7.57
2022-10-11T14:19:45.993Z,10.05
2022-10-11T14:22:17.225Z,8.70
2022-10-11T14:24:48.021Z,7.00
2022-10-11T14:27:19.598Z,7.82
2022-10-11T14:30:00.543Z,6.57
2022-10-11T14:32:36.294Z,8.95
2022-10-11T14:35:05.204Z,6.70
2022-10-11T14:37:34.310Z,8.05
2022-10-11T14:40:02.042Z,9.98
2022-10-11T14:42:29.857Z,11.30
2022-10-11T14:44:57.552Z,7.25
2022-10-11T14:47:25.268Z,9.00
2022-10-11T14:49:52.979Z,9.05
2022-10-11T14:52:20.697Z,9.52
2022-10-11T14:54:49.787Z,13.40
2022-10-11T14:57:17.533Z,9.13
2022-10-11T14:59:45.318Z,7.90
2022-10-11T15:02:13.167Z,6.20
2022-10-11T15:04:40.827Z,8.90
2022-10-11T15:07:08.758Z,8.30
2022-10-11T15:09:36.475Z,8.05
2022-10-11T15:12:06.152Z,7.28
2022-10-11T15:14:33.869Z,8.15
2022-10-11T15:17:01.545Z,8.27
2022-10-11T15:19:29.273Z,8.98
2022-10-11T15:21:56.979Z,8.00
2022-10-11T15:24:24.799Z,7.43
2022-10-11T15:26:52.487Z,8.98
2022-10-11T15:29:24.026Z,9.30
2022-10-11T15:31:51.960Z,8.88
2022-10-11T15:34:19.636Z,9.63
2022-10-11T15:36:47.708Z,6.75
2022-10-11T15:39:25.382Z,10.52
2022-10-11T15:41:53.264Z,9.40
2022-10-11T15:44:22.445Z,7.72
2022-10-11T15:46:50.190Z,5.43
2022-10-11T15:49:19.165Z,10.98
2022-10-11T15:51:47.350Z,11.30
2022-10-11T15:54:15.096Z,7.63
2022-10-11T15:56:43.140Z,10.48
2022-10-11T15:59:11.571Z,9.50
2022-10-11T16:01:40.810Z,9.00
2022-10-11T16:04:08.602Z,8.50
2022-10-11T16:06:36.307Z,9.05
2022-10-11T16:09:04.238Z,10.43
2022-10-11T16:11:32.110Z,13.90
2022-10-11T16:13:59.854Z,7.70
2022-10-11T16:16:27.520Z,10.60
2022-10-11T16:18:56.583Z,7.65
2022-10-11T16:21:24.653Z,9.13
2022-10-11T16:23:52.357Z,8.95
2022-10-11T16:26:20.188Z,9.18
2022-10-11T16:28:48.464Z,8.20
2022-10-11T16:31:20.694Z,8.15
2022-10-11T16:33:48.728Z,12.20
2022-10-11T16:36:39.932Z,12.88
2022-10-11T16:39:10.311Z,13.02
2022-10-11T16:41:38.833Z,11.73
2022-10-11T16:44:07.141Z,10.20
2022-10-11T16:46:35.438Z,10.90
2022-10-11T16:49:03.576Z,11.35
2022-10-11T16:51:32.709Z,8.63
2022-10-11T16:54:00.652Z,13.02
2022-10-11T16:56:28.666Z,10.52
2022-10-11T16:58:56.419Z,8.98
2022-10-11T17:01:24.614Z,11.75
2022-10-11T17:03:52.652Z,10.30
2022-10-11T17:06:21.178Z,10.32
2022-10-11T17:08:50.349Z,15.95
2022-10-11T17:11:18.429Z,11.18
2022-10-11T17:13:47.143Z,11.52
2022-10-11T17:16:15.307Z,7.13
2022-10-11T17:18:43.453Z,11.60
2022-10-11T17:21:13.992Z,14.13
2022-10-11T17:23:42.377Z,12.00
2022-10-11T17:26:16.447Z,15.98
2022-10-11T17:28:44.923Z,14.70
2022-10-11T17:31:13.212Z,14.93
2022-10-11T17:33:40.996Z,15.00
2022-10-11T17:36:23.851Z,16.17
2022-10-11T17:38:53.261Z,12.73
2022-10-11T17:41:22.315Z,11.73
2022-10-11T17:43:50.196Z,10.13
2022-10-11T17:46:19.358Z,11.75
2022-10-11T17:48:47.224Z,16.65
2022-10-11T17:51:16.858Z,16.83
2022-10-11T17:53:45.189Z,14.23
2022-10-11T17:56:14.967Z,15.77
2022-10-11T17:58:45.138Z,15.63
2022-10-11T18:01:15.334Z,15.68
2022-10-11T18:03:44.418Z,18.83
2022-10-11T18:06:14.207Z,15.38
2022-10-11T18:08:43.283Z,20.60
2022-10-11T18:11:13.639Z,14.73
2022-10-11T18:13:45.804Z,16.52
2022-10-11T18:16:16.097Z,17.65
2022-10-11T18:18:44.692Z,16.30
2022-10-11T18:21:13.124Z,20.50
2022-10-11T18:23:41.631Z,170.50
2022-10-11T18:26:11.400Z,29.77
2022-10-11T18:28:40.481Z,36.17
2022-10-11T18:31:13.382Z,42.85
2022-10-11T18:33:45.798Z,23.52
2022-10-11T18:36:16.240Z,22.20
2022-10-11T18:38:46.651Z,16.70
2022-10-11T18:41:16.759Z,18.70
2022-10-11T18:43:48.941Z,17.27
2022-10-11T18:46:16.797Z,15.43
2022-10-11T18:48:48.481Z,12.60
2022-10-11T18:51:19.285Z,13.70
2022-10-11T18:53:47.867Z,13.18
2022-10-11T18:56:17.698Z,13.85
2022-10-11T18:58:45.696Z,14.32
2022-10-11T19:01:16.957Z,11.93
2022-10-11T19:03:48.132Z,14.35
2022-10-11T19:06:18.501Z,14.55
2022-10-11T19:08:47.089Z,13.43
2022-10-11T19:11:16.862Z,15.77
2022-10-11T19:13:45.158Z,14.52
2022-10-11T19:16:15.233Z,18.63
2022-10-11T19:18:44.436Z,14.48
2022-10-11T19:21:14.497Z,18.77
2022-10-11T19:23:44.317Z,15.13
2022-10-11T19:26:15.534Z,15.45
2022-10-11T19:28:43.935Z,14.35
2022-10-11T19:31:17.010Z,13.90
2022-10-11T19:33:49.700Z,14.48
2022-10-11T19:36:20.223Z,13.65
2022-10-11T19:38:50.906Z,13.93
2022-10-11T19:41:20.710Z,13.15
2022-10-11T19:43:48.540Z,16.65
2022-10-11T19:46:37.893Z,13.73
2022-10-11T19:49:07.538Z,16.15
2022-10-11T19:51:38.094Z,12.63
2022-10-11T19:54:07.923Z,13.52
2022-10-11T19:56:36.665Z,14.63
2022-10-11T19:59:06.501Z,18.73
2022-10-11T20:01:35.490Z,14.23
2022-10-11T20:04:05.954Z,17.77
2022-10-11T20:06:38.701Z,16.33
2022-10-11T20:11:54.908Z,21.73
2022-10-11T20:14:24.130Z,19.73
2022-10-11T20:16:52.478Z,17.58
2022-10-11T20:19:24.869Z,16.67
2022-10-11T20:21:56.347Z,17.67
2022-10-11T20:24:24.361Z,18.27
2022-10-11T20:26:52.365Z,18.50
2022-10-11T20:29:20.409Z,18.70
2022-10-11T20:31:48.097Z,17.38
2022-10-11T20:34:15.928Z,16.40
2022-10-11T20:36:48.251Z,18.42
2022-10-11T20:39:18.562Z,20.77
2022-10-11T20:41:46.568Z,18.30
2022-10-11T20:44:16.040Z,20.55
2022-10-11T20:46:43.774Z,18.67
2022-10-11T20:49:13.567Z,20.15
2022-10-11T20:51:42.839Z,16.05
2022-10-11T20:54:11.274Z,14.13
2022-10-11T20:56:41.457Z,12.60
2022-10-11T20:59:09.985Z,11.45
2022-10-11T21:01:39.676Z,14.85
2022-10-11T21:04:18.589Z,17.42
2022-10-11T21:06:48.621Z,15.13
2022-10-11T21:09:17.402Z,16.35
2022-10-11T21:11:47.156Z,15.50
2022-10-11T21:14:15.125Z,13.90
2022-10-11T21:16:43.033Z,15.93
2022-10-11T21:19:15.065Z,13.73
2022-10-11T21:21:43.521Z,13.93
2022-10-11T21:24:11.473Z,13.88
2022-10-11T21:26:39.232Z,11.32
2022-10-11T21:29:08.547Z,12.55
2022-10-11T21:31:36.554Z,17.60
2022-10-11T21:34:05.086Z,13.82
2022-10-11T21:36:32.850Z,12.13
2022-10-11T21:39:00.905Z,14.38
2022-10-11T21:41:30.313Z,13.30
2022-10-11T21:43:58.605Z,12.50
2022-10-11T21:47:01.114Z,14.35
2022-10-11T21:49:19.057Z,14.55
2022-10-11T21:51:47.211Z,12.65
2022-10-11T21:54:15.139Z,13.20
2022-10-11T21:56:43.062Z,14.30
2022-10-11T21:59:12.397Z,13.32
2022-10-11T22:01:42.957Z,12.75
2022-10-11T22:04:11.980Z,14.10
2022-10-11T22:06:40.727Z,18.00
2022-10-11T22:09:09.463Z,12.45
2022-10-11T22:11:37.359Z,12.68
2022-10-11T22:14:05.519Z,11.95
2022-10-11T22:16:34.547Z,12.52
2022-10-11T22:19:04.074Z,13.65
2022-10-11T22:21:31.736Z,12.25
2022-10-11T22:23:59.574Z,16.58
2022-10-11T22:26:30.504Z,13.90
2022-10-11T22:28:58.664Z,15.25
2022-10-11T22:31:26.426Z,15.55
2022-10-11T22:33:55.635Z,14.25
2022-10-11T22:36:25.115Z,13.90
2022-10-11T22:38:53.542Z,13.18
2022-10-11T22:41:21.574Z,10.40
2022-10-11T22:43:49.273Z,15.50
2022-10-11T22:46:17.128Z,13.68
2022-10-11T22:48:45.048Z,16.33
2022-10-11T22:51:13.533Z,13.10
2022-10-11T22:53:42.624Z,13.20
2022-10-11T22:56:11.125Z,10.57
2022-10-11T22:58:38.829Z,15.13
2022-10-11T23:01:10.213Z,11.10
2022-10-11T23:03:38.479Z,12.85
2022-10-11T23:06:06.827Z,10.48
2022-10-11T23:08:34.517Z,12.55
2022-10-11T23:11:08.087Z,14.07
2022-10-11T23:13:36.129Z,12.93
2022-10-11T23:16:07.118Z,13.73
2022-10-11T23:18:35.221Z,14.38
2022-10-11T23:21:03.489Z,10.40
2022-10-11T23:23:31.319Z,15.73
2022-10-11T23:26:03.231Z,12.40
2022-10-11T23:28:32.418Z,10.25
2022-10-11T23:31:00.290Z,12.77
2022-10-11T23:33:29.342Z,12.15
2022-10-11T23:35:57.402Z,15.18
2022-10-11T23:38:25.210Z,12.80
2022-10-11T23:40:52.951Z,14.82
2022-10-11T23:43:20.850Z,12.38
2022-10-11T23:45:50.258Z,13.93
2022-10-11T23:48:18.009Z,13.63
2022-10-11T23:50:46.805Z,12.35
2022-10-11T23:53:14.561Z,12.77
2022-10-11T23:55:43.642Z,15.25
2022-10-11T23:58:11.411Z,14.88
